Time;durP1;ratioP1;P1;durP2;ratioP2;P2;SDS_P1;SDS_P2;PMS_P1;PMS_P2;Temp;Humidity;BMP_temperature;BMP_pressure;BME280_temperature;BME280_humidity;BME280_pressure;Samples;Min_cycle;Max_cycle;Signal;HPM_P1;HPM_P2
2023/12/20 00:01:03;;;;;;;0.30;0.30;;;7.10;68.20;;;;;;4905560;29;20028;-82
2023/12/20 00:03:29;;;;;;;0.10;0.10;;;7.20;68.10;;;;;;4921318;29;20509;-88
2023/12/20 00:05:55;;;;;;;0.25;0.20;;;7.10;68.40;;;;;;4904870;29;20060;-84
2023/12/20 00:08:21;;;;;;;0.65;0.22;;;7.10;68.40;;;;;;4904011;29;20473;-87
2023/12/20 00:10:46;;;;;;;0.73;0.20;;;7.00;68.50;;;;;;4923474;29;20028;-79
2023/12/20 00:13:12;;;;;;;0.22;0.22;;;7.10;68.50;;;;;;4920519;29;20577;-86
2023/12/20 00:15:38;;;;;;;0.20;0.13;;;7.10;68.80;;;;;;4920506;29;20047;-87
2023/12/20 00:18:04;;;;;;;0.20;0.20;;;7.10;69.10;;;;;;4920384;29;20474;-85
2023/12/20 00:20:29;;;;;;;0.35;0.30;;;7.10;68.90;;;;;;4920778;29;20107;-79
2023/12/20 00:22:57;;;;;;;0.20;0.20;;;7.10;68.30;;;;;;4920853;29;20496;-84
2023/12/20 00:25:23;;;;;;;1.58;0.28;;;7.10;68.30;;;;;;4920703;29;20079;-86
2023/12/20 00:27:48;;;;;;;0.20;0.10;;;7.10;68.30;;;;;;4920194;29;20032;-82
2023/12/20 00:30:14;;;;;;;0.63;0.20;;;7.10;68.40;;;;;;4920185;29;20520;-81
2023/12/20 00:32:45;;;;;;;0.10;0.10;;;7.10;68.70;;;;;;4922279;29;20059;-88
2023/12/20 00:35:14;;;;;;;0.15;0.10;;;7.10;68.90;;;;;;4904493;29;20028;-88
2023/12/20 00:37:40;;;;;;;0.10;0.10;;;7.20;69.00;;;;;;4922669;29;20039;-80
2023/12/20 00:40:06;;;;;;;0.10;0.10;;;7.10;69.10;;;;;;4929669;29;20024;-89
2023/12/20 00:42:32;;;;;;;0.20;0.20;;;7.20;68.90;;;;;;4928966;29;20036;-90
2023/12/20 00:44:58;;;;;;;0.22;0.20;;;7.20;69.20;;;;;;4921439;29;20500;-91
2023/12/20 00:47:24;;;;;;;0.57;0.40;;;7.30;69.20;;;;;;4920465;29;20517;-82
2023/12/20 00:49:49;;;;;;;0.20;0.20;;;7.30;69.20;;;;;;4920722;29;20133;-90
2023/12/20 00:52:17;;;;;;;0.17;0.17;;;7.30;69.50;;;;;;4919869;29;20024;-86
2023/12/20 00:54:42;;;;;;;0.20;0.20;;;7.30;69.90;;;;;;4921939;29;20045;-90
2023/12/20 00:57:09;;;;;;;0.30;0.20;;;7.30;69.70;;;;;;4920185;29;20039;-88
2023/12/20 00:59:34;;;;;;;0.20;0.20;;;7.30;70.20;;;;;;4915766;29;20016;-88
2023/12/20 01:01:59;;;;;;;0.30;0.30;;;7.30;70.40;;;;;;4910322;29;20035;-78
2023/12/20 01:04:25;;;;;;;1.77;0.20;;;7.30;70.70;;;;;;4938600;29;20036;-86
2023/12/20 01:06:51;;;;;;;0.40;0.20;;;7.30;70.50;;;;;;4920896;29;20031;-77
2023/12/20 01:09:18;;;;;;;0.28;0.20;;;7.30;70.30;;;;;;4938175;29;20032;-87
2023/12/20 01:11:44;;;;;;;0.40;0.25;;;7.40;70.50;;;;;;4937051;29;20492;-87
2023/12/20 01:14:09;;;;;;;0.28;0.15;;;7.40;70.20;;;;;;4938045;29;20044;-77
2023/12/20 01:16:35;;;;;;;0.63;0.22;;;7.40;70.20;;;;;;4937791;29;20055;-79
2023/12/20 01:19:00;;;;;;;1.25;0.30;;;7.40;70.60;;;;;;4938453;29;20031;-87
2023/12/20 01:21:26;;;;;;;0.17;0.17;;;7.30;71.80;;;;;;4921625;29;20043;-86
2023/12/20 01:23:51;;;;;;;0.20;0.20;;;7.40;72.10;;;;;;4938187;29;20024;-83
2023/12/20 01:26:17;;;;;;;0.73;0.30;;;7.40;72.40;;;;;;4940418;29;20031;-85
2023/12/20 01:28:43;;;;;;;0.57;0.32;;;7.30;72.60;;;;;;4947335;29;20019;-74
2023/12/20 01:31:08;;;;;;;1.58;0.35;;;7.30;73.10;;;;;;4958176;28;20047;-81
2023/12/20 01:33:34;;;;;;;0.32;0.32;;;7.20;73.30;;;;;;4951898;28;20043;-81
2023/12/20 01:36:00;;;;;;;0.90;0.10;;;7.20;73.50;;;;;;4943641;29;20027;-87
2023/12/20 01:38:25;;;;;;;0.65;0.35;;;7.30;73.30;;;;;;4939150;29;20381;-88
2023/12/20 01:40:52;;;;;;;0.65;0.50;;;7.30;73.70;;;;;;4938499;29;20039;-79
2023/12/20 01:43:18;;;;;;;0.57;0.35;;;7.20;73.60;;;;;;4938805;29;20141;-89
2023/12/20 01:45:43;;;;;;;0.35;0.20;;;7.20;74.80;;;;;;4937685;29;20050;-87
2023/12/20 01:48:10;;;;;;;0.55;0.30;;;7.10;75.10;;;;;;4938102;29;20102;-90
2023/12/20 01:50:37;;;;;;;0.43;0.30;;;7.10;74.80;;;;;;4938124;29;20028;-88
2023/12/20 01:53:05;;;;;;;0.30;0.30;;;7.20;75.00;;;;;;4938745;29;20020;-90
2023/12/20 01:55:33;;;;;;;0.52;0.40;;;7.20;75.00;;;;;;4939094;29;20366;-90
2023/12/20 01:57:59;;;;;;;2.20;0.50;;;7.20;74.90;;;;;;4938862;29;20028;-89
2023/12/20 02:00:27;;;;;;;0.57;0.40;;;7.10;75.20;;;;;;4939352;29;20043;-88
2023/12/20 02:02:55;;;;;;;0.68;0.40;;;7.00;76.00;;;;;;4938693;29;20028;-88
2023/12/20 02:05:21;;;;;;;0.88;0.40;;;7.10;75.80;;;;;;4938169;29;20030;-84
2023/12/20 02:07:46;;;;;;;0.65;0.43;;;7.10;75.90;;;;;;4921593;29;20031;-87
2023/12/20 02:10:12;;;;;;;0.43;0.20;;;7.10;76.10;;;;;;4938586;29;20343;-87
2023/12/20 02:12:38;;;;;;;0.17;0.17;;;7.20;76.10;;;;;;4937837;29;20031;-87
2023/12/20 02:15:05;;;;;;;0.38;0.20;;;7.20;76.50;;;;;;4938133;29;20031;-85
2023/12/20 02:17:32;;;;;;;0.20;0.20;;;7.10;77.20;;;;;;4937633;29;20031;-82
2023/12/20 02:19:57;;;;;;;0.85;0.30;;;7.00;78.40;;;;;;4937681;29;20075;-88
2023/12/20 02:22:23;;;;;;;0.20;0.20;;;6.90;79.10;;;;;;4938904;29;20032;-85
2023/12/20 02:24:48;;;;;;;0.30;0.30;;;6.80;79.70;;;;;;4938492;29;20031;-89
2023/12/20 02:27:17;;;;;;;0.45;0.20;;;6.90;80.20;;;;;;4937781;29;20040;-88
2023/12/20 02:29:42;;;;;;;0.30;0.20;;;6.80;81.00;;;;;;4937462;29;20028;-85
2023/12/20 02:32:08;;;;;;;0.43;0.20;;;6.80;80.80;;;;;;4947652;29;20015;-79
2023/12/20 02:34:33;;;;;;;0.30;0.20;;;6.80;81.30;;;;;;4959118;29;20032;-80
2023/12/20 02:36:59;;;;;;;1.05;0.30;;;6.70;81.30;;;;;;4958261;29;20036;-77
2023/12/20 02:39:25;;;;;;;0.20;0.20;;;6.70;81.00;;;;;;4937675;29;20163;-85
2023/12/20 02:41:51;;;;;;;0.30;0.20;;;6.70;81.50;;;;;;4937641;29;20047;-85
2023/12/20 02:44:16;;;;;;;0.32;0.15;;;6.60;80.80;;;;;;4937466;29;20027;-82
2023/12/20 02:46:42;;;;;;;0.22;0.20;;;6.70;80.60;;;;;;4937624;29;20082;-77
2023/12/20 02:49:10;;;;;;;0.10;0.10;;;6.60;80.80;;;;;;4937117;29;20031;-85
2023/12/20 02:51:38;;;;;;;0.25;0.20;;;6.50;81.10;;;;;;4937153;29;20036;-85
2023/12/20 02:54:04;;;;;;;0.17;0.10;;;6.40;81.20;;;;;;4938439;29;20024;-83
2023/12/20 02:56:29;;;;;;;0.00;0.00;;;6.50;81.50;;;;;;4944879;29;20028;-85
2023/12/20 02:58:55;;;;;;;0.10;0.10;;;6.40;81.50;;;;;;4957092;29;20039;-84
2023/12/20 03:01:20;;;;;;;0.17;0.15;;;6.40;81.00;;;;;;4943098;29;20024;-84
2023/12/20 03:03:46;;;;;;;0.22;0.20;;;6.50;81.20;;;;;;4941385;29;20036;-83
2023/12/20 03:06:15;;;;;;;0.75;0.30;;;6.50;81.20;;;;;;4940423;29;20082;-82
2023/12/20 03:08:41;;;;;;;0.77;0.20;;;6.40;81.70;;;;;;4940987;29;20020;-84
2023/12/20 03:11:06;;;;;;;0.85;0.20;;;6.40;81.80;;;;;;4923899;29;20023;-85
2023/12/20 03:13:32;;;;;;;0.55;0.38;;;6.40;82.80;;;;;;4923540;29;20493;-86
2023/12/20 03:15:59;;;;;;;1.85;0.20;;;6.30;82.30;;;;;;4923837;29;20051;-88
2023/12/20 03:18:25;;;;;;;1.25;0.10;;;6.30;82.60;;;;;;4941528;29;20046;-84
2023/12/20 03:20:50;;;;;;;0.45;0.20;;;6.40;82.10;;;;;;4924005;29;20031;-84
2023/12/20 03:23:16;;;;;;;0.28;0.20;;;6.30;82.10;;;;;;4941344;29;20034;-84
2023/12/20 03:25:41;;;;;;;1.10;0.22;;;6.30;82.20;;;;;;4924657;29;20482;-86
2023/12/20 03:28:07;;;;;;;0.43;0.20;;;6.30;82.30;;;;;;4924682;29;20047;-81
2023/12/20 03:30:32;;;;;;;0.68;0.30;;;6.40;82.10;;;;;;4941614;29;20031;-89
2023/12/20 03:32:58;;;;;;;1.08;0.20;;;6.30;81.80;;;;;;4940494;29;20488;-83
2023/12/20 03:35:23;;;;;;;0.32;0.30;;;6.20;82.50;;;;;;4923276;29;20115;-85
2023/12/20 03:37:49;;;;;;;1.33;0.20;;;6.10;82.90;;;;;;4940382;29;20345;-85
2023/12/20 03:40:14;;;;;;;0.60;0.30;;;6.10;83.50;;;;;;4939951;29;20031;-81
2023/12/20 03:42:40;;;;;;;0.60;0.30;;;6.20;83.10;;;;;;4939833;29;20043;-83
2023/12/20 03:45:06;;;;;;;0.30;0.30;;;6.20;83.30;;;;;;4940795;29;20020;-87
2023/12/20 03:47:32;;;;;;;0.30;0.30;;;6.00;82.50;;;;;;4940931;29;20118;-85
2023/12/20 03:49:57;;;;;;;0.63;0.20;;;6.00;83.70;;;;;;4924267;29;20024;-88
2023/12/20 03:52:23;;;;;;;0.40;0.30;;;6.00;83.40;;;;;;4924283;29;20075;-87
2023/12/20 03:54:48;;;;;;;0.32;0.25;;;6.00;83.00;;;;;;4922442;29;20395;-83
2023/12/20 03:57:14;;;;;;;0.30;0.30;;;6.10;82.90;;;;;;4922184;29;20043;-84
2023/12/20 03:59:39;;;;;;;0.20;0.10;;;6.10;82.80;;;;;;4922484;29;20385;-83
2023/12/20 04:02:05;;;;;;;1.00;0.30;;;6.10;82.90;;;;;;4939366;29;20028;-82
2023/12/20 04:04:30;;;;;;;0.90;0.32;;;6.20;82.00;;;;;;4922380;29;20571;-86
2023/12/20 04:06:56;;;;;;;1.33;0.10;;;6.00;82.70;;;;;;4921972;29;20034;-86
2023/12/20 04:09:21;;;;;;;0.30;0.10;;;6.00;82.50;;;;;;4940291;29;20027;-87
2023/12/20 04:11:47;;;;;;;1.10;0.10;;;6.00;82.50;;;;;;4923037;29;20050;-84
2023/12/20 04:14:12;;;;;;;0.30;0.00;;;6.00;83.20;;;;;;4922461;29;20125;-85
2023/12/20 04:16:39;;;;;;;1.00;0.10;;;6.00;82.80;;;;;;4922563;29;20024;-83
2023/12/20 04:19:04;;;;;;;0.40;0.22;;;6.00;82.60;;;;;;4939725;29;20027;-83
2023/12/20 04:21:30;;;;;;;1.55;0.20;;;6.10;82.90;;;;;;4923842;29;20024;-83
2023/12/20 04:23:56;;;;;;;0.50;0.25;;;6.10;83.00;;;;;;4934577;29;20051;-84
2023/12/20 04:26:21;;;;;;;0.75;0.22;;;6.00;82.70;;;;;;4958881;29;20032;-77
2023/12/20 04:28:47;;;;;;;0.57;0.20;;;6.10;82.50;;;;;;4958882;28;20044;-90
2023/12/20 04:31:13;;;;;;;0.80;0.30;;;6.00;82.20;;;;;;4923743;29;20083;-83
2023/12/20 04:33:38;;;;;;;0.68;0.20;;;6.00;81.70;;;;;;4940236;29;20052;-90
2023/12/20 04:36:04;;;;;;;0.55;0.17;;;6.00;81.90;;;;;;4923235;29;20047;-82
2023/12/20 04:38:30;;;;;;;0.43;0.20;;;6.00;81.60;;;;;;4940016;29;20027;-85
2023/12/20 04:40:55;;;;;;;1.65;0.20;;;6.00;81.70;;;;;;4943583;29;20027;-84
2023/12/20 04:43:21;;;;;;;0.10;0.10;;;6.00;81.70;;;;;;4923250;29;20034;-83
2023/12/20 04:45:46;;;;;;;0.30;0.20;;;6.00;81.60;;;;;;4927963;29;20019;-86
2023/12/20 04:48:12;;;;;;;0.25;0.25;;;6.10;81.70;;;;;;4936532;29;20087;-75
2023/12/20 04:50:37;;;;;;;0.45;0.30;;;6.10;81.40;;;;;;4957158;28;20027;-75
2023/12/20 04:53:03;;;;;;;1.83;0.63;;;6.10;80.90;;;;;;4958315;29;20027;-78
2023/12/20 04:55:29;;;;;;;1.60;0.75;;;6.10;81.10;;;;;;4925945;29;20028;-85
2023/12/20 04:57:54;;;;;;;7.88;3.47;;;6.10;81.00;;;;;;4940266;29;20039;-82
2023/12/20 05:00:20;;;;;;;4.93;2.20;;;6.20;81.10;;;;;;4939418;29;20054;-81
2023/12/20 05:02:45;;;;;;;3.55;1.80;;;6.20;80.80;;;;;;4921348;29;20034;-82
2023/12/20 05:05:11;;;;;;;4.57;2.40;;;6.20;80.60;;;;;;4921753;29;20075;-81
2023/12/20 05:07:37;;;;;;;3.75;1.75;;;6.10;80.70;;;;;;4939107;29;20079;-79
2023/12/20 05:10:04;;;;;;;1.92;0.65;;;6.20;80.60;;;;;;4922599;29;20079;-86
2023/12/20 05:12:30;;;;;;;1.30;0.65;;;6.10;80.60;;;;;;4937701;29;20111;-83
2023/12/20 05:14:55;;;;;;;0.55;0.30;;;6.10;80.70;;;;;;4921677;29;20024;-83
2023/12/20 05:17:24;;;;;;;0.50;0.30;;;6.20;80.60;;;;;;4938190;29;20042;-85
2023/12/20 05:19:49;;;;;;;0.30;0.30;;;6.10;80.40;;;;;;4937285;29;20027;-87
2023/12/20 05:22:15;;;;;;;0.68;0.20;;;6.10;80.70;;;;;;4921557;29;20498;-87
2023/12/20 05:24:40;;;;;;;0.40;0.40;;;6.00;80.10;;;;;;4921484;29;20078;-86
2023/12/20 05:27:06;;;;;;;0.35;0.30;;;6.10;80.40;;;;;;4938171;29;20528;-84
2023/12/20 05:29:31;;;;;;;0.90;0.45;;;5.90;80.70;;;;;;4936961;29;20480;-87
2023/12/20 05:31:58;;;;;;;0.47;0.40;;;5.90;81.20;;;;;;4921725;29;20496;-86
2023/12/20 05:34:24;;;;;;;0.40;0.30;;;6.00;80.60;;;;;;4922883;29;20122;-75
2023/12/20 05:36:49;;;;;;;0.60;0.22;;;6.10;80.30;;;;;;4937703;29;20119;-83
2023/12/20 05:39:15;;;;;;;0.20;0.17;;;6.00;79.60;;;;;;4937750;29;20028;-82
2023/12/20 05:41:40;;;;;;;1.73;0.25;;;6.00;79.60;;;;;;4937865;29;20389;-82
2023/12/20 05:44:06;;;;;;;0.40;0.40;;;6.00;79.30;;;;;;4936364;29;20039;-83
2023/12/20 05:46:31;;;;;;;1.00;0.30;;;6.10;79.60;;;;;;4937702;29;20036;-79
2023/12/20 05:49:00;;;;;;;0.95;0.25;;;6.10;79.60;;;;;;4936305;29;20050;-84
2023/12/20 05:51:26;;;;;;;0.20;0.20;;;6.00;79.50;;;;;;4920039;29;20060;-79
2023/12/20 05:53:51;;;;;;;0.30;0.20;;;6.00;79.00;;;;;;4936659;29;20440;-79
2023/12/20 05:56:17;;;;;;;0.50;0.30;;;5.80;79.80;;;;;;4936611;29;20087;-77
2023/12/20 05:58:43;;;;;;;0.28;0.15;;;5.80;80.20;;;;;;4936596;29;20032;-76
2023/12/20 06:01:09;;;;;;;0.45;0.35;;;5.80;80.00;;;;;;4936926;29;20050;-85
2023/12/20 06:03:34;;;;;;;0.43;0.32;;;5.60;80.50;;;;;;4919616;29;20489;-85
2023/12/20 06:06:07;;;;;;;0.30;0.30;;;5.60;80.90;;;;;;4937200;29;20540;-84
2023/12/20 06:08:33;;;;;;;4.88;2.63;;;5.60;80.90;;;;;;4936102;29;20499;-80
2023/12/20 06:10:59;;;;;;;4.15;2.22;;;5.70;81.00;;;;;;4936861;29;20106;-85
2023/12/20 06:13:24;;;;;;;0.77;0.40;;;5.80;81.00;;;;;;4919312;29;20103;-85
2023/12/20 06:15:50;;;;;;;0.50;0.50;;;5.90;80.70;;;;;;4936836;29;20027;-78
2023/12/20 06:18:15;;;;;;;0.28;0.28;;;5.80;80.90;;;;;;4937276;29;20039;-85
2023/12/20 06:20:41;;;;;;;0.82;0.30;;;5.80;80.70;;;;;;4937229;29;20099;-85
2023/12/20 06:23:06;;;;;;;0.57;0.30;;;5.70;81.30;;;;;;4936619;29;20031;-80
2023/12/20 06:25:32;;;;;;;0.60;0.50;;;5.70;81.20;;;;;;4936831;29;20039;-75
2023/12/20 06:27:57;;;;;;;0.45;0.30;;;5.60;81.70;;;;;;4936882;29;20433;-83
2023/12/20 06:30:24;;;;;;;0.73;0.30;;;5.60;81.70;;;;;;4935785;29;20102;-80
2023/12/20 06:32:50;;;;;;;2.13;0.60;;;5.60;81.60;;;;;;4936836;29;20082;-80
2023/12/20 06:35:15;;;;;;;0.28;0.28;;;5.70;81.60;;;;;;4936248;29;20389;-83
2023/12/20 06:37:42;;;;;;;0.25;0.22;;;5.70;82.10;;;;;;4936417;29;20032;-81
2023/12/20 06:40:10;;;;;;;0.40;0.25;;;5.60;82.20;;;;;;4937126;29;20047;-85
2023/12/20 06:42:35;;;;;;;0.63;0.40;;;5.60;82.70;;;;;;4936529;29;20095;-82
2023/12/20 06:45:01;;;;;;;0.90;0.22;;;5.70;82.40;;;;;;4936082;29;20450;-83
2023/12/20 06:47:26;;;;;;;0.30;0.30;;;5.70;82.10;;;;;;4934635;29;20104;-83
2023/12/20 06:49:52;;;;;;;0.47;0.20;;;5.70;82.40;;;;;;4920581;29;20052;-76
2023/12/20 06:52:18;;;;;;;0.73;0.20;;;5.60;82.20;;;;;;4954904;29;20027;-78
2023/12/20 06:54:44;;;;;;;1.42;0.25;;;5.60;82.20;;;;;;4954688;29;20103;-77
2023/12/20 06:57:09;;;;;;;0.57;0.30;;;5.60;82.30;;;;;;4954914;29;20393;-77
2023/12/20 06:59:41;;;;;;;0.40;0.35;;;5.70;82.20;;;;;;4955442;29;20106;-85
2023/12/20 07:02:08;;;;;;;0.43;0.20;;;5.70;82.00;;;;;;4949334;29;20396;-78
2023/12/20 07:04:34;;;;;;;0.35;0.30;;;5.70;82.00;;;;;;4955195;29;20177;-84
2023/12/20 07:07:00;;;;;;;0.73;0.60;;;5.70;82.20;;;;;;4956895;29;20496;-85
2023/12/20 07:09:26;;;;;;;0.57;0.38;;;5.70;82.10;;;;;;4956115;29;20020;-85
2023/12/20 07:11:52;;;;;;;1.08;0.45;;;5.70;82.00;;;;;;4938654;29;20028;-85
2023/12/20 07:14:18;;;;;;;0.47;0.38;;;5.70;82.10;;;;;;4937991;29;20058;-83
2023/12/20 07:16:43;;;;;;;0.28;0.22;;;5.70;81.70;;;;;;4957062;29;20035;-85
2023/12/20 07:19:09;;;;;;;0.25;0.20;;;5.80;81.70;;;;;;4970511;29;20043;-81
2023/12/20 07:21:34;;;;;;;0.65;0.30;;;5.70;81.70;;;;;;4969801;29;20038;-81
2023/12/20 07:24:00;;;;;;;0.93;0.73;;;5.70;81.60;;;;;;4974503;29;20034;-83
2023/12/20 07:26:25;;;;;;;0.93;0.52;;;5.70;82.10;;;;;;4955624;29;20031;-81
2023/12/20 07:28:51;;;;;;;0.20;0.20;;;5.70;82.10;;;;;;4955301;29;20479;-81
2023/12/20 07:31:16;;;;;;;0.30;0.30;;;5.70;82.20;;;;;;4954764;29;20042;-82
2023/12/20 07:33:42;;;;;;;1.52;0.50;;;5.70;81.80;;;;;;4955121;29;20022;-85
2023/12/20 07:36:08;;;;;;;1.23;0.32;;;5.70;82.10;;;;;;4955605;29;20066;-80
2023/12/20 07:38:34;;;;;;;0.95;0.38;;;5.60;81.80;;;;;;4937413;29;20036;-81
2023/12/20 07:40:59;;;;;;;0.35;0.30;;;5.60;82.00;;;;;;4954518;28;20071;-82
2023/12/20 07:43:25;;;;;;;1.08;0.50;;;5.70;82.00;;;;;;4957284;29;20027;-84
2023/12/20 07:45:50;;;;;;;0.40;0.40;;;5.70;82.20;;;;;;4958357;29;20023;-83
2023/12/20 07:48:16;;;;;;;1.23;0.55;;;5.70;82.00;;;;;;4958220;29;20035;-83
2023/12/20 07:50:42;;;;;;;1.80;0.70;;;5.80;81.60;;;;;;4959344;29;20085;-83
2023/12/20 07:53:08;;;;;;;0.47;0.38;;;5.80;81.30;;;;;;4940960;29;20023;-83
2023/12/20 07:55:34;;;;;;;0.52;0.30;;;5.80;81.30;;;;;;4926310;29;20031;-82
2023/12/20 07:58:00;;;;;;;1.25;0.73;;;5.80;81.40;;;;;;4960857;29;20374;-85
2023/12/20 08:00:26;;;;;;;1.00;0.50;;;5.90;81.50;;;;;;4962785;28;20039;-78
2023/12/20 08:02:52;;;;;;;1.50;1.17;;;5.90;81.60;;;;;;4978369;29;20393;-79
2023/12/20 08:05:17;;;;;;;1.00;0.80;;;5.90;81.60;;;;;;4966066;29;20055;-88
2023/12/20 08:07:43;;;;;;;2.65;0.90;;;5.80;81.80;;;;;;4945149;29;20019;-87
2023/12/20 08:10:09;;;;;;;1.42;1.00;;;5.80;82.20;;;;;;4943898;29;20449;-84
2023/12/20 08:12:34;;;;;;;12.25;1.52;;;5.80;82.70;;;;;;4941290;29;20094;-77
2023/12/20 08:15:00;;;;;;;7.40;0.82;;;5.80;84.60;;;;;;4940177;29;20035;-77
2023/12/20 08:17:25;;;;;;;0.88;0.77;;;6.40;88.40;;;;;;4939628;29;20035;-76
2023/12/20 08:19:51;;;;;;;1.08;0.45;;;6.60;82.60;;;;;;4923762;29;20499;-75
2023/12/20 08:22:17;;;;;;;5.10;3.72;;;6.60;80.50;;;;;;4957159;29;20389;-73
2023/12/20 08:24:42;;;;;;;4.30;2.20;;;6.40;80.90;;;;;;4939874;29;20399;-77
2023/12/20 08:27:09;;;;;;;6.15;3.28;;;6.50;80.70;;;;;;4939987;29;20075;-75
2023/12/20 08:29:36;;;;;;;2.67;1.63;;;6.60;81.50;;;;;;4939634;29;20038;-75
2023/12/20 08:32:02;;;;;;;1.75;0.95;;;6.80;81.10;;;;;;4939998;29;20019;-77
2023/12/20 08:34:27;;;;;;;0.60;0.50;;;6.80;79.90;;;;;;4956761;29;20102;-76
2023/12/20 08:36:54;;;;;;;1.25;0.70;;;7.00;79.80;;;;;;4939670;29;20392;-77
2023/12/20 08:39:19;;;;;;;2.20;0.93;;;7.00;78.90;;;;;;4939794;29;20126;-74
2023/12/20 08:41:45;;;;;;;0.85;0.45;;;7.10;78.40;;;;;;4939490;29;20110;-75
2023/12/20 08:44:10;;;;;;;0.75;0.70;;;6.80;77.80;;;;;;4940345;29;20423;-74
2023/12/20 08:46:36;;;;;;;1.75;0.80;;;6.50;79.80;;;;;;4956720;29;20027;-73
2023/12/20 08:49:02;;;;;;;2.03;1.05;;;6.30;80.50;;;;;;4940181;29;20137;-73
2023/12/20 08:51:29;;;;;;;1.55;1.20;;;6.40;81.10;;;;;;4956807;29;20580;-80
2023/12/20 08:53:54;;;;;;;1.75;1.30;;;6.40;80.50;;;;;;4956598;28;20027;-82
2023/12/20 08:56:20;;;;;;;3.00;1.45;;;6.20;80.90;;;;;;4939477;29;20030;-82
2023/12/20 08:58:46;;;;;;;3.03;0.75;;;6.10;81.80;;;;;;4939816;29;20039;-80
2023/12/20 09:01:15;;;;;;;1.42;1.13;;;6.10;82.20;;;;;;4956618;29;20065;-83
2023/12/20 09:03:40;;;;;;;1.30;0.80;;;6.10;82.00;;;;;;4939847;29;20031;-83
2023/12/20 09:06:06;;;;;;;1.98;1.05;;;6.00;82.30;;;;;;4940174;29;20030;-82
2023/12/20 09:08:32;;;;;;;1.70;1.10;;;6.00;82.90;;;;;;4960366;29;20106;-83
2023/12/20 09:10:58;;;;;;;2.70;0.93;;;5.90;83.20;;;;;;4959399;29;20024;-83
2023/12/20 09:13:29;;;;;;;1.00;0.73;;;6.00;82.70;;;;;;4942465;29;20496;-84
2023/12/20 09:15:56;;;;;;;2.40;0.77;;;6.10;82.00;;;;;;4939846;29;20103;-83
2023/12/20 09:18:21;;;;;;;3.92;0.50;;;6.00;81.50;;;;;;4956128;29;20740;-82
2023/12/20 09:20:47;;;;;;;1.42;0.77;;;6.00;81.70;;;;;;4956169;29;20027;-84
2023/12/20 09:23:12;;;;;;;1.65;0.70;;;6.00;82.10;;;;;;4955865;29;20370;-79
2023/12/20 09:25:38;;;;;;;1.55;0.90;;;6.00;82.60;;;;;;4938803;29;20507;-84
2023/12/20 09:28:03;;;;;;;1.10;0.90;;;5.90;83.00;;;;;;4938974;29;20053;-79
2023/12/20 09:30:29;;;;;;;2.38;1.48;;;6.00;82.60;;;;;;4938250;29;20023;-77
2023/12/20 09:32:55;;;;;;;5.35;2.67;;;5.80;82.30;;;;;;4938256;29;20034;-82
2023/12/20 09:35:21;;;;;;;2.58;1.77;;;5.90;83.30;;;;;;4938967;29;20070;-79
2023/12/20 09:37:47;;;;;;;3.83;1.27;;;6.00;83.20;;;;;;4957059;29;20512;-81
2023/12/20 09:40:13;;;;;;;2.25;0.98;;;6.00;83.70;;;;;;4941929;29;20023;-86
2023/12/20 09:42:58;;;;;;;1.55;0.70;;;6.00;84.60;;;;;;4939343;29;20437;-83
2023/12/20 09:45:24;;;;;;;1.98;0.98;;;6.00;83.90;;;;;;4955781;29;20042;-83
2023/12/20 09:47:52;;;;;;;0.57;0.50;;;5.80;82.20;;;;;;4942074;29;20094;-84
2023/12/20 09:50:20;;;;;;;1.48;0.50;;;5.80;82.40;;;;;;4955684;29;20434;-82
2023/12/20 09:52:52;;;;;;;3.70;0.40;;;5.70;82.50;;;;;;4955746;29;20397;-80
2023/12/20 09:55:21;;;;;;;0.43;0.40;;;5.60;83.40;;;;;;4955635;29;20076;-81
2023/12/20 09:57:49;;;;;;;0.50;0.50;;;5.60;83.00;;;;;;4937904;29;20512;-81
2023/12/20 10:00:15;;;;;;;0.75;0.65;;;5.50;83.00;;;;;;4955387;29;20034;-81
2023/12/20 10:03:00;;;;;;;0.60;0.57;;;5.30;83.80;;;;;;4955326;29;20023;-82
2023/12/20 10:05:31;;;;;;;2.22;0.80;;;5.40;83.70;;;;;;4954692;28;20050;-83
2023/12/20 10:07:57;;;;;;;2.50;1.35;;;5.40;83.60;;;;;;4938420;29;20035;-81
2023/12/20 10:10:23;;;;;;;1.23;1.00;;;5.40;83.70;;;;;;4955236;29;20030;-81
2023/12/20 10:13:03;;;;;;;0.57;0.50;;;5.40;83.90;;;;;;4937375;29;20123;-81
2023/12/20 10:15:29;;;;;;;1.65;0.95;;;5.50;83.70;;;;;;4937467;29;20151;-81
2023/12/20 10:17:54;;;;;;;0.30;0.30;;;5.50;83.40;;;;;;4955011;29;20155;-82
2023/12/20 10:20:20;;;;;;;3.85;0.60;;;5.50;82.80;;;;;;4938273;29;20457;-82
2023/12/20 10:22:47;;;;;;;0.75;0.73;;;5.60;83.30;;;;;;4955007;29;20099;-79
2023/12/20 10:25:12;;;;;;;1.63;0.80;;;5.50;83.70;;;;;;4954013;29;20034;-77
2023/12/20 10:27:38;;;;;;;7.45;2.90;;;5.60;83.70;;;;;;4937781;29;20034;-79
2023/12/20 10:30:04;;;;;;;2.17;1.08;;;5.60;84.00;;;;;;4938229;29;20039;-83
2023/12/20 10:32:31;;;;;;;3.67;2.17;;;5.60;83.30;;;;;;4937845;29;20038;-80
2023/12/20 10:34:57;;;;;;;1.52;1.25;;;5.60;83.50;;;;;;4937730;29;20023;-75
2023/12/20 10:37:23;;;;;;;2.55;1.23;;;5.50;82.40;;;;;;4954693;29;20122;-77
2023/12/20 10:39:56;;;;;;;2.35;1.13;;;5.40;82.60;;;;;;4954832;29;20436;-80
2023/12/20 10:42:22;;;;;;;3.63;1.00;;;5.40;82.80;;;;;;4937820;29;20126;-82
2023/12/20 10:44:49;;;;;;;1.98;1.42;;;5.40;83.00;;;;;;4937536;29;20419;-80
2023/12/20 10:47:17;;;;;;;1.30;1.20;;;5.40;83.50;;;;;;4912689;29;20040;-82
2023/12/20 10:49:44;;;;;;;1.58;1.00;;;5.40;83.40;;;;;;4900076;29;20032;-83
2023/12/20 10:52:12;;;;;;;1.60;1.02;;;5.50;82.50;;;;;;4918430;29;20024;-84
2023/12/20 10:54:41;;;;;;;3.60;2.40;;;5.40;83.30;;;;;;4914378;29;20032;-76
2023/12/20 10:57:07;;;;;;;2.90;2.15;;;5.50;83.40;;;;;;4907550;29;20047;-79
2023/12/20 10:59:41;;;;;;;3.35;2.20;;;5.40;83.10;;;;;;4918587;29;20436;-79
2023/12/20 11:02:06;;;;;;;3.10;1.55;;;5.30;84.10;;;;;;4899684;29;20169;-76
2023/12/20 11:04:59;;;;;;;5.88;2.85;;;5.30;82.70;;;;;;4931813;29;20540;-78
2023/12/20 11:07:44;;;;;;;3.85;2.17;;;5.30;82.70;;;;;;4936530;29;20546;-78
2023/12/20 11:10:25;;;;;;;4.15;2.47;;;5.50;82.40;;;;;;4937677;29;20349;-80
2023/12/20 11:12:59;;;;;;;2.95;1.70;;;6.10;80.10;;;;;;4954060;29;20039;-78
2023/12/20 11:15:27;;;;;;;4.18;1.65;;;6.70;76.40;;;;;;4952968;29;20047;-80
2023/12/20 11:17:56;;;;;;;3.17;1.70;;;6.70;76.20;;;;;;4940851;29;20138;-79
2023/12/20 11:20:36;;;;;;;5.55;1.58;;;6.60;76.90;;;;;;4955247;29;20085;-79
2023/12/20 11:23:02;;;;;;;1.70;1.20;;;6.40;75.70;;;;;;4941180;29;20027;-77
2023/12/20 11:25:28;;;;;;;1.50;1.40;;;6.30;77.10;;;;;;4941425;29;20024;-77
2023/12/20 11:28:12;;;;;;;1.98;1.48;;;6.10;77.80;;;;;;4958107;29;20031;-77
2023/12/20 11:30:50;;;;;;;3.00;1.20;;;6.10;78.40;;;;;;4959349;29;20035;-81
2023/12/20 11:33:16;;;;;;;2.30;1.20;;;6.00;78.50;;;;;;4943879;29;20035;-80
2023/12/20 11:35:45;;;;;;;2.28;1.25;;;6.20;78.30;;;;;;4964126;29;20031;-76
2023/12/20 11:38:10;;;;;;;1.45;1.20;;;6.10;76.50;;;;;;4940851;29;20066;-76
2023/12/20 11:40:37;;;;;;;2.20;1.65;;;5.90;77.00;;;;;;4958251;29;20433;-78
2023/12/20 11:43:03;;;;;;;1.67;0.98;;;5.90;77.80;;;;;;4935422;29;20038;-79
2023/12/20 11:45:28;;;;;;;1.90;1.45;;;5.70;78.50;;;;;;4921400;29;20027;-79
2023/12/20 11:47:57;;;;;;;1.50;1.13;;;5.70;79.00;;;;;;4938142;29;20523;-78
2023/12/20 11:50:23;;;;;;;1.50;1.35;;;5.70;78.80;;;;;;4938066;29;20509;-76
2023/12/20 11:52:50;;;;;;;2.03;1.60;;;5.80;78.60;;;;;;4921064;29;20087;-82
2023/12/20 11:55:15;;;;;;;7.55;1.70;;;5.70;78.90;;;;;;4936709;29;20032;-79
2023/12/20 11:57:42;;;;;;;1.80;1.40;;;5.70;79.20;;;;;;4938503;29;20043;-81
2023/12/20 12:00:08;;;;;;;3.67;1.90;;;5.70;79.20;;;;;;4938401;29;20024;-82
2023/12/20 12:02:34;;;;;;;2.70;1.92;;;5.80;78.20;;;;;;4938243;29;20027;-80
2023/12/20 12:04:59;;;;;;;2.97;1.55;;;5.70;77.70;;;;;;4937827;29;20171;-81
2023/12/20 12:07:25;;;;;;;5.57;2.08;;;5.60;76.80;;;;;;4920864;29;20425;-79
2023/12/20 12:09:51;;;;;;;3.55;1.92;;;5.60;76.30;;;;;;4937821;29;20027;-78
2023/12/20 12:12:19;;;;;;;3.78;2.17;;;5.40;76.10;;;;;;4920985;29;20056;-78
2023/12/20 12:14:45;;;;;;;5.80;2.15;;;5.40;76.10;;;;;;4939990;29;20063;-78
2023/12/20 12:17:14;;;;;;;4.05;2.60;;;5.30;76.10;;;;;;4937869;29;20046;-76
2023/12/20 12:19:41;;;;;;;4.18;2.13;;;5.30;76.20;;;;;;4938133;29;20032;-79
2023/12/20 12:22:15;;;;;;;2.35;1.92;;;5.20;76.40;;;;;;4938034;29;20457;-77
2023/12/20 12:24:41;;;;;;;5.00;1.80;;;5.30;74.90;;;;;;4937877;29;20051;-76
2023/12/20 12:27:07;;;;;;;7.38;2.05;;;5.20;75.10;;;;;;4937896;29;20485;-77
2023/12/20 12:29:34;;;;;;;4.57;1.80;;;5.10;73.40;;;;;;4937227;29;20622;-78
2023/12/20 12:32:00;;;;;;;5.93;1.98;;;5.10;73.10;;;;;;4920535;29;20028;-79
2023/12/20 12:34:28;;;;;;;9.10;1.80;;;5.10;72.80;;;;;;4920835;29;20110;-79
2023/12/20 12:36:53;;;;;;;3.85;1.45;;;5.10;73.40;;;;;;4920631;29;20028;-78
2023/12/20 12:39:19;;;;;;;4.35;1.65;;;5.10;70.40;;;;;;4920569;29;20028;-77
2023/12/20 12:41:45;;;;;;;7.82;1.90;;;5.30;70.60;;;;;;4920530;29;20114;-80
2023/12/20 12:44:11;;;;;;;4.72;1.58;;;5.20;71.20;;;;;;4937365;29;20103;-79
2023/12/20 12:46:36;;;;;;;6.88;1.90;;;5.10;72.30;;;;;;4920790;29;20028;-79
2023/12/20 12:49:02;;;;;;;3.47;1.70;;;5.00;72.00;;;;;;4920306;29;20035;-80
2023/12/20 12:51:27;;;;;;;5.78;2.20;;;5.00;72.10;;;;;;4919832;29;20031;-77
2023/12/20 12:53:56;;;;;;;8.77;2.45;;;5.00;72.70;;;;;;4937476;29;20039;-79